Shipu, China
Current Conditions -  °F | °C
As of 3:00 PM on Thursday 18 Dec 2014 (Local Time) from ZSNB Reporting Station
Clear Clear  
Wind Chill: 50°   Ceiling: Unl
Heat Index: 50°   Visibility: 6mi
Dew Point: 21°   Wind: 4mph
Humidity: 32%   Direction: 130°SE
Pressure: 30.48"   Gusts: NA
Location:  29.2°N, 121.95°E
Report Text: ZSNB 180700Z 13002MPS 080V190 CAVOK 10/M06 Q1032 NOSIG
Loading
Personal Weather Stations






























Interactive Weather Map New forecast layout! Learn more

10-Day Weather Forecast

Advertisements
Track Severe Weather on mobile